sensor_id;sensor_type;location;lat;lon;timestamp;temperature;humidity
68011;DHT22;54794;48.348;7.878;2022-12-07T00:01:51;8.00;71.00
68011;DHT22;54794;48.348;7.878;2022-12-07T00:04:54;8.10;71.10
68011;DHT22;54794;48.348;7.878;2022-12-07T00:08:01;7.90;71.20
68011;DHT22;54794;48.348;7.878;2022-12-07T00:11:22;8.00;71.20
68011;DHT22;54794;48.348;7.878;2022-12-07T00:14:46;8.00;71.30
68011;DHT22;54794;48.348;7.878;2022-12-07T00:17:57;8.00;71.30
68011;DHT22;54794;48.348;7.878;2022-12-07T00:20:45;8.00;71.30
68011;DHT22;54794;48.348;7.878;2022-12-07T00:24:10;8.00;71.30
68011;DHT22;54794;48.348;7.878;2022-12-07T00:27:29;8.50;71.70
68011;DHT22;54794;48.348;7.878;2022-12-07T00:34:04;8.20;71.50
68011;DHT22;54794;48.348;7.878;2022-12-07T00:37:23;7.90;71.30
68011;DHT22;54794;48.348;7.878;2022-12-07T00:40:16;7.90;71.40
68011;DHT22;54794;48.348;7.878;2022-12-07T00:43:32;7.90;71.40
68011;DHT22;54794;48.348;7.878;2022-12-07T00:47:04;7.90;71.40
68011;DHT22;54794;48.348;7.878;2022-12-07T00:53:11;7.90;71.60
68011;DHT22;54794;48.348;7.878;2022-12-07T00:56:16;7.80;71.50
68011;DHT22;54794;48.348;7.878;2022-12-07T00:59:26;7.80;71.70
68011;DHT22;54794;48.348;7.878;2022-12-07T01:02:32;7.90;71.70
68011;DHT22;54794;48.348;7.878;2022-12-07T01:09:04;7.60;71.50
68011;DHT22;54794;48.348;7.878;2022-12-07T01:15:45;7.90;71.70
68011;DHT22;54794;48.348;7.878;2022-12-07T01:18:51;7.90;71.70
68011;DHT22;54794;48.348;7.878;2022-12-07T01:21:41;7.90;71.60
68011;DHT22;54794;48.348;7.878;2022-12-07T01:24:44;7.90;71.60
68011;DHT22;54794;48.348;7.878;2022-12-07T01:27:44;7.90;71.60
68011;DHT22;54794;48.348;7.878;2022-12-07T01:30:46;7.90;71.60
68011;DHT22;54794;48.348;7.878;2022-12-07T01:34:18;7.90;71.70
68011;DHT22;54794;48.348;7.878;2022-12-07T01:40:26;7.80;71.50
68011;DHT22;54794;48.348;7.878;2022-12-07T01:47:17;7.90;71.60
68011;DHT22;54794;48.348;7.878;2022-12-07T01:50:30;7.90;71.50
68011;DHT22;54794;48.348;7.878;2022-12-07T01:53:29;7.90;71.50
68011;DHT22;54794;48.348;7.878;2022-12-07T01:55:58;8.20;71.70
68011;DHT22;54794;48.348;7.878;2022-12-07T01:58:25;7.90;71.60
68011;DHT22;54794;48.348;7.878;2022-12-07T02:00:52;7.90;71.70
68011;DHT22;54794;48.348;7.878;2022-12-07T02:03:31;7.90;71.50
68011;DHT22;54794;48.348;7.878;2022-12-07T02:06:02;7.90;71.60
68011;DHT22;54794;48.348;7.878;2022-12-07T02:08:32;8.30;71.80
68011;DHT22;54794;48.348;7.878;2022-12-07T02:11:01;8.10;71.70
68011;DHT22;54794;48.348;7.878;2022-12-07T02:13:32;7.80;71.60
68011;DHT22;54794;48.348;7.878;2022-12-07T02:18:58;7.90;71.80
68011;DHT22;54794;48.348;7.878;2022-12-07T02:22:01;7.90;71.80
68011;DHT22;54794;48.348;7.878;2022-12-07T02:30:25;7.90;71.70
68011;DHT22;54794;48.348;7.878;2022-12-07T02:33:04;7.80;71.60
68011;DHT22;54794;48.348;7.878;2022-12-07T02:38:16;7.90;71.70
68011;DHT22;54794;48.348;7.878;2022-12-07T02:41:18;7.90;71.60
68011;DHT22;54794;48.348;7.878;2022-12-07T02:46:29;7.90;71.50
68011;DHT22;54794;48.348;7.878;2022-12-07T02:49:00;7.90;71.60
68011;DHT22;54794;48.348;7.878;2022-12-07T02:51:31;7.80;71.40
68011;DHT22;54794;48.348;7.878;2022-12-07T02:53:59;8.10;71.60
68011;DHT22;54794;48.348;7.878;2022-12-07T03:11:42;7.70;71.40
68011;DHT22;54794;48.348;7.878;2022-12-07T03:15:25;7.70;71.50
68011;DHT22;54794;48.348;7.878;2022-12-07T03:17:38;7.60;71.40
68011;DHT22;54794;48.348;7.878;2022-12-07T03:20:11;8.00;71.60
68011;DHT22;54794;48.348;7.878;2022-12-07T03:22:43;7.70;71.50
68011;DHT22;54794;48.348;7.878;2022-12-07T03:25:14;7.70;71.50
68011;DHT22;54794;48.348;7.878;2022-12-07T03:27:57;7.70;71.50
68011;DHT22;54794;48.348;7.878;2022-12-07T03:33:20;7.70;71.60
68011;DHT22;54794;48.348;7.878;2022-12-07T03:36:04;7.70;71.70
68011;DHT22;54794;48.348;7.878;2022-12-07T03:38:44;7.60;71.60
68011;DHT22;54794;48.348;7.878;2022-12-07T03:41:23;7.70;71.50
68011;DHT22;54794;48.348;7.878;2022-12-07T03:43:56;7.70;71.60
68011;DHT22;54794;48.348;7.878;2022-12-07T03:49:34;7.60;71.70
68011;DHT22;54794;48.348;7.878;2022-12-07T03:52:39;7.60;71.60
68011;DHT22;54794;48.348;7.878;2022-12-07T03:55:16;7.70;71.70
68011;DHT22;54794;48.348;7.878;2022-12-07T03:57:49;7.80;71.70
68011;DHT22;54794;48.348;7.878;2022-12-07T04:00:20;7.60;71.50
68011;DHT22;54794;48.348;7.878;2022-12-07T04:02:47;7.60;71.50
68011;DHT22;54794;48.348;7.878;2022-12-07T04:05:14;7.70;71.60
68011;DHT22;54794;48.348;7.878;2022-12-07T04:07:41;7.70;71.60
68011;DHT22;54794;48.348;7.878;2022-12-07T04:10:08;7.60;71.50
68011;DHT22;54794;48.348;7.878;2022-12-07T04:12:35;7.60;71.50
68011;DHT22;54794;48.348;7.878;2022-12-07T04:15:03;7.60;71.50
68011;DHT22;54794;48.348;7.878;2022-12-07T04:17:30;7.60;71.30
68011;DHT22;54794;48.348;7.878;2022-12-07T04:19:57;7.60;71.40
68011;DHT22;54794;48.348;7.878;2022-12-07T04:22:24;7.50;71.40
68011;DHT22;54794;48.348;7.878;2022-12-07T04:24:51;7.70;71.50
68011;DHT22;54794;48.348;7.878;2022-12-07T04:27:18;7.60;71.50
68011;DHT22;54794;48.348;7.878;2022-12-07T04:29:45;7.50;71.40
68011;DHT22;54794;48.348;7.878;2022-12-07T04:32:12;7.60;71.50
68011;DHT22;54794;48.348;7.878;2022-12-07T04:34:39;7.50;71.50
68011;DHT22;54794;48.348;7.878;2022-12-07T04:37:06;7.50;71.50
68011;DHT22;54794;48.348;7.878;2022-12-07T04:39:33;7.40;71.60
68011;DHT22;54794;48.348;7.878;2022-12-07T04:42:00;7.40;71.60
68011;DHT22;54794;48.348;7.878;2022-12-07T04:44:28;7.50;71.70
68011;DHT22;54794;48.348;7.878;2022-12-07T04:46:56;7.50;71.50
68011;DHT22;54794;48.348;7.878;2022-12-07T04:49:24;7.40;71.50
68011;DHT22;54794;48.348;7.878;2022-12-07T04:51:51;7.50;71.70
68011;DHT22;54794;48.348;7.878;2022-12-07T04:54:18;7.40;71.40
68011;DHT22;54794;48.348;7.878;2022-12-07T04:56:45;7.40;71.50
68011;DHT22;54794;48.348;7.878;2022-12-07T04:59:13;7.50;71.60
68011;DHT22;54794;48.348;7.878;2022-12-07T05:01:42;7.40;71.50
68011;DHT22;54794;48.348;7.878;2022-12-07T05:04:09;7.40;71.60
68011;DHT22;54794;48.348;7.878;2022-12-07T05:06:37;7.50;71.70
68011;DHT22;54794;48.348;7.878;2022-12-07T05:09:04;7.40;71.60
68011;DHT22;54794;48.348;7.878;2022-12-07T05:11:31;7.90;71.90
68011;DHT22;54794;48.348;7.878;2022-12-07T05:14:18;7.40;71.70
68011;DHT22;54794;48.348;7.878;2022-12-07T05:16:48;7.40;71.70
68011;DHT22;54794;48.348;7.878;2022-12-07T05:19:18;7.60;71.70
68011;DHT22;54794;48.348;7.878;2022-12-07T05:21:45;7.40;71.60
68011;DHT22;54794;48.348;7.878;2022-12-07T05:24:16;7.80;71.70
68011;DHT22;54794;48.348;7.878;2022-12-07T05:26:44;7.30;71.40
68011;DHT22;54794;48.348;7.878;2022-12-07T05:29:16;7.30;71.40
68011;DHT22;54794;48.348;7.878;2022-12-07T05:31:44;7.30;71.40
68011;DHT22;54794;48.348;7.878;2022-12-07T05:34:13;7.30;71.30
68011;DHT22;54794;48.348;7.878;2022-12-07T05:36:40;7.30;71.30
68011;DHT22;54794;48.348;7.878;2022-12-07T05:39:10;7.50;71.50
68011;DHT22;54794;48.348;7.878;2022-12-07T05:41:38;7.40;71.20
68011;DHT22;54794;48.348;7.878;2022-12-07T05:44:24;7.20;71.10
68011;DHT22;54794;48.348;7.878;2022-12-07T05:46:51;7.10;71.20
68011;DHT22;54794;48.348;7.878;2022-12-07T05:49:19;7.10;71.20
68011;DHT22;54794;48.348;7.878;2022-12-07T05:51:47;7.50;71.50
68011;DHT22;54794;48.348;7.878;2022-12-07T05:54:14;7.30;71.50
68011;DHT22;54794;48.348;7.878;2022-12-07T05:56:42;7.10;71.10
68011;DHT22;54794;48.348;7.878;2022-12-07T05:59:12;7.00;71.10
68011;DHT22;54794;48.348;7.878;2022-12-07T06:02:09;7.10;71.00
68011;DHT22;54794;48.348;7.878;2022-12-07T06:04:40;7.00;71.00
68011;DHT22;54794;48.348;7.878;2022-12-07T06:07:11;7.00;71.00
68011;DHT22;54794;48.348;7.878;2022-12-07T06:09:41;6.90;70.90
68011;DHT22;54794;48.348;7.878;2022-12-07T06:12:15;6.90;71.00
68011;DHT22;54794;48.348;7.878;2022-12-07T06:15:01;6.80;70.90
68011;DHT22;54794;48.348;7.878;2022-12-07T06:17:28;6.80;70.80
68011;DHT22;54794;48.348;7.878;2022-12-07T06:19:56;6.70;70.80
68011;DHT22;54794;48.348;7.878;2022-12-07T06:22:27;6.70;70.90
68011;DHT22;54794;48.348;7.878;2022-12-07T06:24:56;6.90;70.90
68011;DHT22;54794;48.348;7.878;2022-12-07T06:27:34;7.00;71.00
68011;DHT22;54794;48.348;7.878;2022-12-07T06:30:05;6.60;70.90
68011;DHT22;54794;48.348;7.878;2022-12-07T06:32:36;6.60;71.00
68011;DHT22;54794;48.348;7.878;2022-12-07T06:35:04;7.10;71.30
68011;DHT22;54794;48.348;7.878;2022-12-07T06:37:32;6.50;71.00
68011;DHT22;54794;48.348;7.878;2022-12-07T06:40:00;6.70;71.10
68011;DHT22;54794;48.348;7.878;2022-12-07T06:42:28;6.50;71.00
68011;DHT22;54794;48.348;7.878;2022-12-07T06:44:56;6.50;71.00
68011;DHT22;54794;48.348;7.878;2022-12-07T06:47:23;6.40;71.00
68011;DHT22;54794;48.348;7.878;2022-12-07T06:50:06;6.40;71.10
68011;DHT22;54794;48.348;7.878;2022-12-07T06:52:35;6.40;70.90
68011;DHT22;54794;48.348;7.878;2022-12-07T06:55:03;6.40;70.90
68011;DHT22;54794;48.348;7.878;2022-12-07T06:57:31;6.30;71.00
68011;DHT22;54794;48.348;7.878;2022-12-07T06:59:58;6.60;71.20
68011;DHT22;54794;48.348;7.878;2022-12-07T07:02:26;6.40;71.20
68011;DHT22;54794;48.348;7.878;2022-12-07T07:04:54;6.40;71.20
68011;DHT22;54794;48.348;7.878;2022-12-07T07:07:22;6.70;71.30
68011;DHT22;54794;48.348;7.878;2022-12-07T07:09:49;6.20;71.20
68011;DHT22;54794;48.348;7.878;2022-12-07T07:12:16;6.20;71.10
68011;DHT22;54794;48.348;7.878;2022-12-07T07:14:43;6.20;71.00
68011;DHT22;54794;48.348;7.878;2022-12-07T07:17:11;6.20;71.10
68011;DHT22;54794;48.348;7.878;2022-12-07T07:19:38;6.40;71.30
68011;DHT22;54794;48.348;7.878;2022-12-07T07:22:06;6.20;71.30
68011;DHT22;54794;48.348;7.878;2022-12-07T07:24:34;6.50;71.40
68011;DHT22;54794;48.348;7.878;2022-12-07T07:27:01;6.10;71.30
68011;DHT22;54794;48.348;7.878;2022-12-07T07:29:28;6.60;71.70
68011;DHT22;54794;48.348;7.878;2022-12-07T07:32:30;6.50;71.70
68011;DHT22;54794;48.348;7.878;2022-12-07T07:34:57;6.10;71.70
68011;DHT22;54794;48.348;7.878;2022-12-07T07:37:26;6.10;71.70
68011;DHT22;54794;48.348;7.878;2022-12-07T07:39:55;6.10;71.70
68011;DHT22;54794;48.348;7.878;2022-12-07T07:42:23;6.10;71.80
68011;DHT22;54794;48.348;7.878;2022-12-07T07:44:51;6.10;71.80
68011;DHT22;54794;48.348;7.878;2022-12-07T07:47:18;6.20;71.90
68011;DHT22;54794;48.348;7.878;2022-12-07T07:49:46;6.30;71.80
68011;DHT22;54794;48.348;7.878;2022-12-07T07:52:14;6.50;71.90
68011;DHT22;54794;48.348;7.878;2022-12-07T07:54:41;6.20;71.90
68011;DHT22;54794;48.348;7.878;2022-12-07T07:57:10;6.20;71.70
68011;DHT22;54794;48.348;7.878;2022-12-07T07:59:38;6.20;71.70
68011;DHT22;54794;48.348;7.878;2022-12-07T08:02:05;6.30;71.90
68011;DHT22;54794;48.348;7.878;2022-12-07T08:04:33;6.50;72.00
68011;DHT22;54794;48.348;7.878;2022-12-07T08:07:00;6.30;71.90
68011;DHT22;54794;48.348;7.878;2022-12-07T08:09:27;6.30;71.90
68011;DHT22;54794;48.348;7.878;2022-12-07T08:11:55;6.50;72.60
68011;DHT22;54794;48.348;7.878;2022-12-07T08:14:23;6.30;72.00
68011;DHT22;54794;48.348;7.878;2022-12-07T08:16:51;6.40;71.80
68011;DHT22;54794;48.348;7.878;2022-12-07T08:19:18;6.40;71.90
68011;DHT22;54794;48.348;7.878;2022-12-07T08:21:46;6.40;71.90
68011;DHT22;54794;48.348;7.878;2022-12-07T08:24:13;6.40;72.00
68011;DHT22;54794;48.348;7.878;2022-12-07T08:26:42;6.50;72.00
68011;DHT22;54794;48.348;7.878;2022-12-07T08:29:09;6.70;72.20
68011;DHT22;54794;48.348;7.878;2022-12-07T09:12:04;6.80;72.10
68011;DHT22;54794;48.348;7.878;2022-12-07T09:14:31;6.80;72.10
68011;DHT22;54794;48.348;7.878;2022-12-07T09:17:12;6.90;72.10
68011;DHT22;54794;48.348;7.878;2022-12-07T09:19:48;6.90;72.10
68011;DHT22;54794;48.348;7.878;2022-12-07T09:26:01;6.90;72.20
68011;DHT22;54794;48.348;7.878;2022-12-07T09:28:45;7.80;72.60
68011;DHT22;54794;48.348;7.878;2022-12-07T09:31:27;7.00;72.10
68011;DHT22;54794;48.348;7.878;2022-12-07T09:34:09;7.00;72.10
68011;DHT22;54794;48.348;7.878;2022-12-07T09:36:54;7.80;72.50
68011;DHT22;54794;48.348;7.878;2022-12-07T09:39:46;7.90;72.60
68011;DHT22;54794;48.348;7.878;2022-12-07T09:45:50;7.10;72.00
68011;DHT22;54794;48.348;7.878;2022-12-07T09:49:01;7.40;72.20
68011;DHT22;54794;48.348;7.878;2022-12-07T09:53:24;7.20;72.10
68011;DHT22;54794;48.348;7.878;2022-12-07T09:56:00;7.20;71.90
68011;DHT22;54794;48.348;7.878;2022-12-07T09:58:41;7.30;72.00
68011;DHT22;54794;48.348;7.878;2022-12-07T10:01:16;7.30;72.00
68011;DHT22;54794;48.348;7.878;2022-12-07T10:04:15;7.90;72.40
68011;DHT22;54794;48.348;7.878;2022-12-07T10:06:58;7.40;72.20
68011;DHT22;54794;48.348;7.878;2022-12-07T10:16:41;7.30;71.90
68011;DHT22;54794;48.348;7.878;2022-12-07T10:19:49;7.70;72.10
68011;DHT22;54794;48.348;7.878;2022-12-07T10:22:36;7.60;72.00
68011;DHT22;54794;48.348;7.878;2022-12-07T10:25:27;7.60;72.00
68011;DHT22;54794;48.348;7.878;2022-12-07T10:30:52;7.70;71.80
68011;DHT22;54794;48.348;7.878;2022-12-07T10:33:38;7.90;71.90
68011;DHT22;54794;48.348;7.878;2022-12-07T10:44:30;7.90;71.80
68011;DHT22;54794;48.348;7.878;2022-12-07T11:30:10;8.30;71.30
68011;DHT22;54794;48.348;7.878;2022-12-07T11:33:02;8.30;71.30
68011;DHT22;54794;48.348;7.878;2022-12-07T11:46:09;8.40;70.90
68011;DHT22;54794;48.348;7.878;2022-12-07T11:52:49;8.40;70.90
68011;DHT22;54794;48.348;7.878;2022-12-07T11:56:13;8.40;71.00
68011;DHT22;54794;48.348;7.878;2022-12-07T11:59:38;8.40;70.80
68011;DHT22;54794;48.348;7.878;2022-12-07T12:05:46;8.40;70.80
68011;DHT22;54794;48.348;7.878;2022-12-07T12:08:32;8.40;71.20
68011;DHT22;54794;48.348;7.878;2022-12-07T12:15:34;8.40;71.00
68011;DHT22;54794;48.348;7.878;2022-12-07T12:50:48;8.80;70.70
68011;DHT22;54794;48.348;7.878;2022-12-07T12:53:31;8.80;70.70
68011;DHT22;54794;48.348;7.878;2022-12-07T13:00:20;8.80;70.30
68011;DHT22;54794;48.348;7.878;2022-12-07T13:03:54;8.80;70.20
68011;DHT22;54794;48.348;7.878;2022-12-07T13:07:12;8.60;70.10
68011;DHT22;54794;48.348;7.878;2022-12-07T13:10:39;8.80;70.20
68011;DHT22;54794;48.348;7.878;2022-12-07T13:13:29;9.00;70.40
68011;DHT22;54794;48.348;7.878;2022-12-07T13:16:42;8.90;70.60
68011;DHT22;54794;48.348;7.878;2022-12-07T13:22:58;8.90;70.20
68011;DHT22;54794;48.348;7.878;2022-12-07T13:25:45;9.00;70.00
68011;DHT22;54794;48.348;7.878;2022-12-07T13:38:36;9.20;69.70
68011;DHT22;54794;48.348;7.878;2022-12-07T13:41:19;9.30;69.50
68011;DHT22;54794;48.348;7.878;2022-12-07T13:44:10;9.30;69.40
68011;DHT22;54794;48.348;7.878;2022-12-07T13:50:55;9.50;69.20
68011;DHT22;54794;48.348;7.878;2022-12-07T13:53:45;9.60;69.00
68011;DHT22;54794;48.348;7.878;2022-12-07T13:57:02;10.20;69.60
68011;DHT22;54794;48.348;7.878;2022-12-07T13:59:44;9.80;69.10
68011;DHT22;54794;48.348;7.878;2022-12-07T14:02:34;9.80;68.50
68011;DHT22;54794;48.348;7.878;2022-12-07T14:09:21;10.00;68.90
68011;DHT22;54794;48.348;7.878;2022-12-07T14:12:06;10.00;67.50
68011;DHT22;54794;48.348;7.878;2022-12-07T14:14:49;10.00;67.90
68011;DHT22;54794;48.348;7.878;2022-12-07T14:17:29;10.00;67.10
68011;DHT22;54794;48.348;7.878;2022-12-07T14:24:19;10.00;67.00
68011;DHT22;54794;48.348;7.878;2022-12-07T14:27:02;10.00;67.10
68011;DHT22;54794;48.348;7.878;2022-12-07T14:29:44;10.00;67.80
68011;DHT22;54794;48.348;7.878;2022-12-07T14:32:34;10.00;68.00
68011;DHT22;54794;48.348;7.878;2022-12-07T14:35:17;10.10;68.10
68011;DHT22;54794;48.348;7.878;2022-12-07T14:37:59;10.10;68.20
68011;DHT22;54794;48.348;7.878;2022-12-07T14:40:44;10.20;67.00
68011;DHT22;54794;48.348;7.878;2022-12-07T14:43:24;10.10;66.90
68011;DHT22;54794;48.348;7.878;2022-12-07T14:46:12;10.10;67.20
68011;DHT22;54794;48.348;7.878;2022-12-07T14:48:52;10.00;66.40
68011;DHT22;54794;48.348;7.878;2022-12-07T14:51:39;10.00;66.90
68011;DHT22;54794;48.348;7.878;2022-12-07T14:55:03;9.90;67.40
68011;DHT22;54794;48.348;7.878;2022-12-07T14:57:46;9.80;66.60
68011;DHT22;54794;48.348;7.878;2022-12-07T15:00:14;9.80;67.00
68011;DHT22;54794;48.348;7.878;2022-12-07T15:02:52;9.80;67.60
68011;DHT22;54794;48.348;7.878;2022-12-07T15:05:21;9.80;67.20
68011;DHT22;54794;48.348;7.878;2022-12-07T15:07:54;9.80;67.70
68011;DHT22;54794;48.348;7.878;2022-12-07T16:16:38;9.00;67.90
68011;DHT22;54794;48.348;7.878;2022-12-07T16:23:51;8.90;67.80
68011;DHT22;54794;48.348;7.878;2022-12-07T16:36:45;8.80;68.40
68011;DHT22;54794;48.348;7.878;2022-12-07T16:39:31;8.80;68.30
68011;DHT22;54794;48.348;7.878;2022-12-07T16:42:15;8.80;68.50
68011;DHT22;54794;48.348;7.878;2022-12-07T16:44:58;8.70;68.40
68011;DHT22;54794;48.348;7.878;2022-12-07T16:47:40;8.70;68.40
68011;DHT22;54794;48.348;7.878;2022-12-07T16:50:25;8.80;68.50
68011;DHT22;54794;48.348;7.878;2022-12-07T16:53:05;8.80;68.70
68011;DHT22;54794;48.348;7.878;2022-12-07T16:55:51;8.60;68.60
68011;DHT22;54794;48.348;7.878;2022-12-07T16:58:33;9.00;68.80
68011;DHT22;54794;48.348;7.878;2022-12-07T17:01:22;8.80;68.80
68011;DHT22;54794;48.348;7.878;2022-12-07T17:07:25;8.70;68.70
68011;DHT22;54794;48.348;7.878;2022-12-07T17:10:14;8.60;68.70
68011;DHT22;54794;48.348;7.878;2022-12-07T17:12:53;8.60;68.70
68011;DHT22;54794;48.348;7.878;2022-12-07T17:15:41;8.60;68.70
68011;DHT22;54794;48.348;7.878;2022-12-07T17:21:44;8.50;68.70
68011;DHT22;54794;48.348;7.878;2022-12-07T17:24:33;8.50;68.70
68011;DHT22;54794;48.348;7.878;2022-12-07T17:27:16;8.70;68.90
68011;DHT22;54794;48.348;7.878;2022-12-07T17:30:04;8.90;69.00
68011;DHT22;54794;48.348;7.878;2022-12-07T17:32:45;8.40;68.80
68011;DHT22;54794;48.348;7.878;2022-12-07T17:35:27;8.40;68.80
68011;DHT22;54794;48.348;7.878;2022-12-07T17:38:12;8.40;68.80
68011;DHT22;54794;48.348;7.878;2022-12-07T17:40:55;8.90;69.20
68011;DHT22;54794;48.348;7.878;2022-12-07T17:43:40;8.30;68.90
68011;DHT22;54794;48.348;7.878;2022-12-07T17:46:20;8.80;69.30
68011;DHT22;54794;48.348;7.878;2022-12-07T17:48:49;8.30;68.90
68011;DHT22;54794;48.348;7.878;2022-12-07T17:51:19;8.30;68.90
68011;DHT22;54794;48.348;7.878;2022-12-07T17:54:36;8.30;68.90
68011;DHT22;54794;48.348;7.878;2022-12-07T17:57:18;8.30;68.90
68011;DHT22;54794;48.348;7.878;2022-12-07T18:00:02;8.20;68.80
68011;DHT22;54794;48.348;7.878;2022-12-07T18:02:40;8.20;68.80
68011;DHT22;54794;48.348;7.878;2022-12-07T18:05:29;8.50;69.10
68011;DHT22;54794;48.348;7.878;2022-12-07T18:08:15;8.20;69.00
68011;DHT22;54794;48.348;7.878;2022-12-07T18:10:58;8.20;68.90
68011;DHT22;54794;48.348;7.878;2022-12-07T18:13:44;8.60;69.10
68011;DHT22;54794;48.348;7.878;2022-12-07T18:16:26;8.20;68.90
68011;DHT22;54794;48.348;7.878;2022-12-07T18:32:14;8.10;68.90
68011;DHT22;54794;48.348;7.878;2022-12-07T18:35:13;8.10;68.90
68011;DHT22;54794;48.348;7.878;2022-12-07T18:37:40;8.10;69.00
68011;DHT22;54794;48.348;7.878;2022-12-07T18:40:10;8.30;69.20
68011;DHT22;54794;48.348;7.878;2022-12-07T18:43:07;8.10;69.10
68011;DHT22;54794;48.348;7.878;2022-12-07T18:45:46;8.10;69.10
68011;DHT22;54794;48.348;7.878;2022-12-07T18:48:28;8.10;69.20
68011;DHT22;54794;48.348;7.878;2022-12-07T18:51:10;8.10;69.20
68011;DHT22;54794;48.348;7.878;2022-12-07T18:53:57;8.00;69.10
68011;DHT22;54794;48.348;7.878;2022-12-07T19:04:13;8.10;69.20
68011;DHT22;54794;48.348;7.878;2022-12-07T19:07:36;8.00;69.20
68011;DHT22;54794;48.348;7.878;2022-12-07T19:10:21;8.10;69.20
68011;DHT22;54794;48.348;7.878;2022-12-07T19:16:36;7.90;69.10
68011;DHT22;54794;48.348;7.878;2022-12-07T19:19:55;8.40;69.30
68011;DHT22;54794;48.348;7.878;2022-12-07T19:30:56;8.00;69.00
68011;DHT22;54794;48.348;7.878;2022-12-07T19:41:46;8.00;69.10
68011;DHT22;54794;48.348;7.878;2022-12-07T19:44:15;8.00;69.10
68011;DHT22;54794;48.348;7.878;2022-12-07T19:46:50;8.20;69.30
68011;DHT22;54794;48.348;7.878;2022-12-07T19:49:38;8.00;69.20
68011;DHT22;54794;48.348;7.878;2022-12-07T19:52:36;8.00;69.20
68011;DHT22;54794;48.348;7.878;2022-12-07T19:55:25;8.00;69.10
68011;DHT22;54794;48.348;7.878;2022-12-07T19:58:07;7.80;69.10
68011;DHT22;54794;48.348;7.878;2022-12-07T20:00:52;8.30;69.40
68011;DHT22;54794;48.348;7.878;2022-12-07T20:03:34;7.90;69.20
68011;DHT22;54794;48.348;7.878;2022-12-07T20:06:09;7.90;69.20
68011;DHT22;54794;48.348;7.878;2022-12-07T20:08:39;8.00;69.20
68011;DHT22;54794;48.348;7.878;2022-12-07T20:11:07;8.00;69.20
68011;DHT22;54794;48.348;7.878;2022-12-07T20:14:29;8.00;69.20
68011;DHT22;54794;48.348;7.878;2022-12-07T20:17:18;8.00;69.10
68011;DHT22;54794;48.348;7.878;2022-12-07T20:19:57;8.00;69.10
68011;DHT22;54794;48.348;7.878;2022-12-07T20:22:41;8.00;69.10
68011;DHT22;54794;48.348;7.878;2022-12-07T20:25:26;8.00;69.10
68011;DHT22;54794;48.348;7.878;2022-12-07T20:28:11;8.20;69.20
68011;DHT22;54794;48.348;7.878;2022-12-07T20:30:52;8.00;69.10
68011;DHT22;54794;48.348;7.878;2022-12-07T20:33:38;8.00;69.10
68011;DHT22;54794;48.348;7.878;2022-12-07T20:36:21;8.00;69.20
68011;DHT22;54794;48.348;7.878;2022-12-07T20:39:06;8.00;69.20
68011;DHT22;54794;48.348;7.878;2022-12-07T20:41:52;8.00;69.10
68011;DHT22;54794;48.348;7.878;2022-12-07T20:45:14;8.00;69.00
68011;DHT22;54794;48.348;7.878;2022-12-07T20:47:59;8.00;69.10
68011;DHT22;54794;48.348;7.878;2022-12-07T20:50:42;7.90;69.00
68011;DHT22;54794;48.348;7.878;2022-12-07T20:53:24;8.00;69.10
68011;DHT22;54794;48.348;7.878;2022-12-07T21:04:24;7.90;69.00
68011;DHT22;54794;48.348;7.878;2022-12-07T21:39:54;7.60;68.80
68011;DHT22;54794;48.348;7.878;2022-12-07T21:51:29;7.60;68.80
68011;DHT22;54794;48.348;7.878;2022-12-07T22:18:07;7.30;69.00
68011;DHT22;54794;48.348;7.878;2022-12-07T22:33:07;7.40;69.20
68011;DHT22;54794;48.348;7.878;2022-12-07T22:35:52;7.70;69.40
68011;DHT22;54794;48.348;7.878;2022-12-07T22:38:35;7.30;69.30
68011;DHT22;54794;48.348;7.878;2022-12-07T22:44:43;7.30;69.20
68011;DHT22;54794;48.348;7.878;2022-12-07T22:47:28;7.20;69.20
68011;DHT22;54794;48.348;7.878;2022-12-07T22:50:10;7.50;69.30
68011;DHT22;54794;48.348;7.878;2022-12-07T22:52:55;7.30;69.30
68011;DHT22;54794;48.348;7.878;2022-12-07T22:55:40;7.20;69.20
68011;DHT22;54794;48.348;7.878;2022-12-07T22:58:23;7.40;69.40
68011;DHT22;54794;48.348;7.878;2022-12-07T23:01:09;7.20;69.20
68011;DHT22;54794;48.348;7.878;2022-12-07T23:03:48;7.20;69.30
68011;DHT22;54794;48.348;7.878;2022-12-07T23:14:43;6.90;68.90
68011;DHT22;54794;48.348;7.878;2022-12-07T23:18:11;7.10;69.10
68011;DHT22;54794;48.348;7.878;2022-12-07T23:20:54;7.50;69.40
68011;DHT22;54794;48.348;7.878;2022-12-07T23:23:34;7.60;69.50
68011;DHT22;54794;48.348;7.878;2022-12-07T23:26:20;8.00;69.80
68011;DHT22;54794;48.348;7.878;2022-12-07T23:29:05;7.00;69.30
68011;DHT22;54794;48.348;7.878;2022-12-07T23:31:50;7.70;69.80
68011;DHT22;54794;48.348;7.878;2022-12-07T23:34:32;7.10;69.30
68011;DHT22;54794;48.348;7.878;2022-12-07T23:37:14;7.00;69.30
68011;DHT22;54794;48.348;7.878;2022-12-07T23:39:57;7.00;69.10
68011;DHT22;54794;48.348;7.878;2022-12-07T23:42:40;7.00;69.10
68011;DHT22;54794;48.348;7.878;2022-12-07T23:45:28;7.20;69.20
68011;DHT22;54794;48.348;7.878;2022-12-07T23:51:35;6.90;69.00
68011;DHT22;54794;48.348;7.878;2022-12-07T23:54:20;6.90;69.00
68011;DHT22;54794;48.348;7.878;2022-12-07T23:57:05;6.80;69.00
68011;DHT22;54794;48.348;7.878;2022-12-07T23:59:47;7.40;69.30
